sim
Sign-in with your pilot id or email,
or register
Callsign
Passwort

Schedule Details

Flight Number: RYR7777 (2)
Departure: Chania International Airport (LGSA) at 13:20
Arrival: Thessaloniki International Airport (LGTS) at 14:40
Route: Ryanair Passenger Schedule. Enter filed route here before submitting Pirep.

Weather Information
Getting current METAR information for LGSA 252150Z 28005KT 9000 FEW004 BKN090 17/14 Q1020
Getting current METAR information for LGTS 252150Z 00000KT CAVOK 15/12 Q1020 NOSIG

Schedule Frequency

Route Map